createdAt,value
2023-05-14T00:00:28.958Z,19.39
2023-05-14T00:02:56.181Z,19.38
2023-05-14T00:05:23.086Z,19.34
2023-05-14T00:07:49.681Z,19.33
2023-05-14T00:10:17.815Z,19.32
2023-05-14T00:12:44.386Z,19.32
2023-05-14T00:15:12.566Z,19.31
2023-05-14T00:17:39.033Z,19.29
2023-05-14T00:20:07.429Z,19.27
2023-05-14T00:22:34.469Z,19.24
2023-05-14T00:25:01.095Z,19.23
2023-05-14T00:27:27.467Z,19.20
2023-05-14T00:29:54.172Z,19.19
2023-05-14T00:32:20.708Z,19.16
2023-05-14T00:34:47.236Z,19.14
2023-05-14T00:37:13.632Z,19.13
2023-05-14T00:39:40.221Z,19.12
2023-05-14T00:42:06.889Z,19.10
2023-05-14T00:44:33.868Z,19.08
2023-05-14T00:47:00.677Z,19.06
2023-05-14T00:49:28.575Z,19.04
2023-05-14T00:51:56.083Z,18.99
2023-05-14T00:54:22.697Z,18.98
2023-05-14T00:56:49.414Z,18.96
2023-05-14T00:59:16.012Z,18.92
2023-05-14T01:01:42.636Z,18.90
2023-05-14T01:04:11.423Z,18.87
2023-05-14T01:06:52.135Z,18.85
2023-05-14T01:09:30.489Z,18.80
2023-05-14T01:11:56.827Z,18.80
2023-05-14T01:14:49.682Z,18.77
2023-05-14T01:17:19.904Z,18.75
2023-05-14T01:19:50.872Z,18.70
2023-05-14T01:22:18.197Z,18.66
2023-05-14T01:24:44.533Z,18.63
2023-05-14T01:27:50.868Z,18.57
2023-05-14T01:30:17.189Z,18.60
2023-05-14T01:32:48.009Z,18.55
2023-05-14T01:35:18.100Z,18.54
2023-05-14T01:37:45.947Z,18.50
2023-05-14T01:40:13.331Z,18.49
2023-05-14T01:42:41.254Z,18.46
2023-05-14T01:45:08.564Z,18.46
2023-05-14T01:47:35.078Z,18.43
2023-05-14T01:50:03.812Z,18.42
2023-05-14T01:52:30.156Z,18.39
2023-05-14T01:54:58.592Z,18.36
2023-05-14T01:57:25.124Z,18.33
2023-05-14T01:59:51.857Z,18.32
2023-05-14T02:02:18.249Z,18.29
2023-05-14T02:04:44.629Z,18.27
2023-05-14T02:07:11.013Z,18.24
2023-05-14T02:09:37.704Z,18.21
2023-05-14T02:12:04.313Z,18.20
2023-05-14T02:14:30.957Z,18.17
2023-05-14T02:16:57.366Z,18.16
2023-05-14T02:19:24.307Z,18.14
2023-05-14T02:21:52.016Z,18.12
2023-05-14T02:24:18.340Z,18.13
2023-05-14T02:26:45.726Z,18.12
2023-05-14T02:29:13.249Z,18.11
2023-05-14T02:31:40.721Z,18.10
2023-05-14T02:34:07.205Z,18.09
2023-05-14T02:36:33.666Z,18.07
2023-05-14T02:39:01.273Z,18.06
2023-05-14T02:41:27.922Z,18.06
2023-05-14T02:43:54.751Z,18.03
2023-05-14T02:46:21.256Z,18.03
2023-05-14T02:48:47.741Z,18.01
2023-05-14T02:51:14.374Z,18.00
2023-05-14T02:53:40.801Z,17.99
2023-05-14T02:56:08.249Z,17.98
2023-05-14T02:58:34.630Z,17.96
2023-05-14T03:01:01.024Z,17.97
2023-05-14T03:03:29.941Z,17.96
2023-05-14T03:05:57.490Z,17.96
2023-05-14T03:08:23.927Z,17.95
2023-05-14T03:10:52.009Z,17.95
2023-05-14T03:13:20.596Z,17.93
2023-05-14T03:15:47.405Z,17.94
2023-05-14T03:18:15.038Z,17.96
2023-05-14T03:20:42.110Z,17.94
2023-05-14T03:23:08.482Z,17.87
2023-05-14T03:25:34.956Z,17.86
2023-05-14T03:28:01.333Z,17.82
2023-05-14T03:30:28.021Z,17.79
2023-05-14T03:32:54.629Z,17.78
2023-05-14T03:35:21.025Z,17.76
2023-05-14T03:37:47.436Z,17.73
2023-05-14T03:40:13.912Z,17.72
2023-05-14T03:42:40.529Z,17.71
2023-05-14T03:45:07.833Z,17.70
2023-05-14T03:47:34.279Z,17.67
2023-05-14T03:50:00.891Z,17.66
2023-05-14T03:52:27.499Z,17.65
2023-05-14T03:54:53.926Z,17.62
2023-05-14T03:57:21.143Z,17.58
2023-05-14T03:59:47.796Z,17.57
2023-05-14T04:02:14.217Z,17.57
2023-05-14T04:04:40.994Z,17.56
2023-05-14T04:07:08.727Z,17.56
2023-05-14T04:09:35.351Z,17.55
2023-05-14T04:12:01.840Z,17.55
2023-05-14T04:14:28.223Z,17.54
2023-05-14T04:16:54.828Z,17.53
2023-05-14T04:19:21.708Z,17.52
2023-05-14T04:21:48.102Z,17.51
2023-05-14T04:24:14.451Z,17.50
2023-05-14T04:26:41.206Z,17.48
2023-05-14T04:29:07.611Z,17.46
2023-05-14T04:31:34.238Z,17.45
2023-05-14T04:34:00.832Z,17.44
2023-05-14T04:36:27.799Z,17.45
2023-05-14T04:38:54.270Z,17.45
2023-05-14T04:41:21.632Z,17.47
2023-05-14T04:43:50.935Z,17.48
2023-05-14T04:46:19.181Z,17.51
2023-05-14T04:48:45.692Z,17.53
2023-05-14T04:51:12.429Z,17.56
2023-05-14T04:53:41.994Z,17.58
2023-05-14T04:56:08.429Z,17.61
2023-05-14T04:58:35.336Z,17.65
2023-05-14T05:01:04.981Z,17.67
2023-05-14T05:03:34.543Z,17.72
2023-05-14T05:06:01.635Z,17.76
2023-05-14T05:08:28.389Z,17.81
2023-05-14T05:10:56.242Z,17.85
2023-05-14T05:13:22.617Z,17.89
2023-05-14T05:15:52.507Z,17.91
2023-05-14T05:18:19.296Z,17.96
2023-05-14T05:20:45.647Z,17.99
2023-05-14T05:23:13.155Z,18.01
2023-05-14T05:25:41.110Z,18.06
2023-05-14T05:28:08.449Z,18.07
2023-05-14T05:30:36.542Z,18.10
2023-05-14T05:33:05.076Z,18.14
2023-05-14T05:35:31.656Z,18.18
2023-05-14T05:38:00.483Z,18.24
2023-05-14T05:40:28.083Z,18.26
2023-05-14T05:42:57.470Z,18.27
2023-05-14T05:45:26.950Z,18.31
2023-05-14T05:47:56.366Z,18.34
2023-05-14T05:50:23.098Z,18.37
2023-05-14T05:52:50.870Z,18.42
2023-05-14T05:55:17.254Z,18.47
2023-05-14T05:57:43.579Z,18.50
2023-05-14T06:00:13.552Z,18.55
2023-05-14T06:02:41.632Z,18.59
2023-05-14T06:05:09.580Z,18.64
2023-05-14T06:07:36.950Z,18.68
2023-05-14T06:10:04.953Z,18.73
2023-05-14T06:12:31.948Z,18.76
2023-05-14T06:14:58.470Z,18.78
2023-05-14T06:17:25.686Z,18.81
2023-05-14T06:19:52.844Z,18.84
2023-05-14T06:22:19.824Z,18.87
2023-05-14T06:24:47.603Z,18.89
2023-05-14T06:27:14.027Z,18.91
2023-05-14T06:29:40.365Z,18.93
2023-05-14T06:32:07.360Z,18.94
2023-05-14T06:34:34.410Z,18.97
2023-05-14T06:37:02.733Z,19.00
2023-05-14T06:39:29.282Z,19.05
2023-05-14T06:41:55.933Z,19.09
2023-05-14T06:44:22.682Z,19.13
2023-05-14T06:46:49.062Z,19.19
2023-05-14T06:49:15.534Z,19.27
2023-05-14T06:51:42.173Z,19.36
2023-05-14T06:54:08.646Z,19.44
2023-05-14T06:56:35.028Z,19.51
2023-05-14T06:59:01.580Z,19.58
2023-05-14T07:01:28.055Z,19.65
2023-05-14T07:03:54.469Z,19.73
2023-05-14T07:06:21.140Z,19.82
2023-05-14T07:08:47.553Z,19.91
2023-05-14T07:11:14.789Z,19.98
2023-05-14T07:13:41.749Z,20.08
2023-05-14T07:16:11.496Z,20.16
2023-05-14T07:18:37.938Z,20.23
2023-05-14T07:21:07.281Z,20.30
2023-05-14T07:23:36.291Z,20.38
2023-05-14T07:26:03.118Z,20.47
2023-05-14T07:28:29.454Z,20.57
2023-05-14T07:30:56.184Z,20.68
2023-05-14T07:33:23.035Z,20.78
2023-05-14T07:35:49.455Z,20.90
2023-05-14T07:38:16.392Z,21.04
2023-05-14T07:40:43.404Z,21.18
2023-05-14T07:43:10.576Z,21.34
2023-05-14T07:45:38.936Z,21.50
2023-05-14T07:48:05.866Z,21.68
2023-05-14T07:50:32.861Z,21.85
2023-05-14T07:52:59.394Z,22.04
2023-05-14T07:55:26.118Z,22.21
2023-05-14T07:57:52.479Z,22.39
2023-05-14T08:00:19.210Z,22.55
2023-05-14T08:02:45.859Z,22.73
2023-05-14T08:05:12.539Z,22.90
2023-05-14T08:07:39.107Z,23.08
2023-05-14T08:10:07.886Z,23.25
2023-05-14T08:12:35.401Z,23.44
2023-05-14T08:15:02.445Z,23.63
2023-05-14T08:17:29.056Z,23.81
2023-05-14T08:19:55.518Z,23.98
2023-05-14T08:22:22.444Z,24.17
2023-05-14T08:24:48.886Z,24.35
2023-05-14T08:27:16.574Z,24.56
2023-05-14T08:29:42.982Z,24.75
2023-05-14T08:32:22.205Z,24.93
2023-05-14T08:34:50.882Z,25.11
2023-05-14T08:37:17.260Z,25.26
2023-05-14T08:39:44.215Z,25.40
2023-05-14T08:42:12.908Z,25.52
2023-05-14T08:44:49.113Z,25.64
2023-05-14T08:47:18.387Z,25.77
2023-05-14T08:49:47.603Z,25.87
2023-05-14T08:52:16.012Z,25.94
2023-05-14T08:54:42.610Z,26.02
2023-05-14T08:57:11.432Z,26.07
2023-05-14T08:59:37.971Z,26.11
2023-05-14T09:02:07.820Z,26.10
2023-05-14T09:04:34.841Z,26.13
2023-05-14T09:07:02.118Z,26.11
2023-05-14T09:09:29.153Z,26.12
2023-05-14T09:11:55.584Z,26.12
2023-05-14T09:14:23.398Z,26.12
2023-05-14T09:16:51.203Z,26.15
2023-05-14T09:19:21.246Z,26.17
2023-05-14T09:21:49.213Z,26.20
2023-05-14T09:24:22.803Z,26.20
2023-05-14T09:26:54.193Z,26.23
2023-05-14T09:29:21.097Z,26.25
2023-05-14T09:31:50.427Z,26.23
2023-05-14T09:34:34.749Z,26.19
2023-05-14T09:37:06.164Z,26.18
2023-05-14T09:39:33.959Z,26.13
2023-05-14T09:42:00.428Z,26.09
2023-05-14T09:44:27.344Z,26.04
2023-05-14T09:46:54.442Z,26.00
2023-05-14T09:49:21.735Z,25.96
2023-05-14T09:51:51.133Z,25.91
2023-05-14T09:54:17.650Z,25.89
2023-05-14T09:56:45.572Z,25.87
2023-05-14T09:59:13.157Z,25.85
2023-05-14T10:01:43.011Z,25.83
2023-05-14T10:04:10.699Z,25.84
2023-05-14T10:06:38.911Z,25.85
2023-05-14T10:09:16.864Z,25.83
2023-05-14T10:11:44.951Z,25.88
2023-05-14T10:14:20.490Z,25.88
2023-05-14T10:16:49.750Z,25.97
2023-05-14T10:19:17.881Z,26.01
2023-05-14T10:21:49.015Z,26.04
2023-05-14T10:24:17.236Z,26.08
2023-05-14T10:26:44.930Z,26.13
2023-05-14T10:29:12.826Z,26.15
2023-05-14T10:31:54.098Z,26.13
2023-05-14T10:34:44.535Z,26.14
2023-05-14T10:37:13.750Z,26.21
2023-05-14T10:39:40.791Z,26.25
2023-05-14T10:42:08.599Z,26.28
2023-05-14T10:44:35.776Z,26.33
2023-05-14T10:47:03.293Z,26.37
2023-05-14T10:49:43.067Z,26.36
2023-05-14T10:52:12.520Z,26.30
2023-05-14T10:54:39.266Z,26.25
2023-05-14T10:57:11.226Z,26.19
2023-05-14T10:59:41.841Z,26.14
2023-05-14T11:02:20.557Z,26.11
2023-05-14T11:04:55.878Z,26.09
2023-05-14T11:07:27.386Z,26.11
2023-05-14T11:09:59.363Z,26.14
2023-05-14T11:12:27.350Z,26.13
2023-05-14T11:14:56.533Z,26.15
2023-05-14T11:17:23.394Z,26.16
2023-05-14T11:19:52.517Z,26.15
2023-05-14T11:22:19.103Z,26.14
2023-05-14T11:24:45.532Z,26.12
2023-05-14T11:27:12.349Z,26.11
2023-05-14T11:29:38.974Z,26.09
2023-05-14T11:32:06.441Z,26.07
2023-05-14T11:34:34.610Z,26.05
2023-05-14T11:37:08.298Z,26.00
2023-05-14T11:39:37.693Z,26.01
2023-05-14T11:42:13.969Z,25.96
2023-05-14T11:44:44.580Z,25.97
2023-05-14T11:47:11.849Z,25.97
2023-05-14T11:49:38.497Z,25.95
2023-05-14T11:52:06.967Z,25.91
2023-05-14T11:54:33.869Z,25.91
2023-05-14T11:57:02.481Z,25.91
2023-05-14T11:59:31.702Z,25.85
2023-05-14T12:02:03.735Z,25.80
2023-05-14T12:04:31.960Z,25.81
2023-05-14T12:07:00.443Z,25.84
2023-05-14T12:09:26.781Z,25.93
2023-05-14T12:11:53.366Z,26.02
2023-05-14T12:14:22.115Z,26.06
2023-05-14T12:16:49.789Z,26.11
2023-05-14T12:19:18.387Z,26.14
2023-05-14T12:21:47.466Z,26.18
2023-05-14T12:24:16.683Z,26.20
2023-05-14T12:26:48.731Z,26.21
2023-05-14T12:29:16.493Z,26.25
2023-05-14T12:31:50.116Z,26.26
2023-05-14T12:34:17.265Z,26.30
2023-05-14T12:36:44.031Z,26.34
2023-05-14T12:39:12.182Z,26.35
2023-05-14T12:41:38.753Z,26.36
2023-05-14T12:44:05.691Z,26.36
2023-05-14T12:46:34.270Z,26.36
2023-05-14T12:49:00.876Z,26.36
2023-05-14T12:51:27.251Z,26.37
2023-05-14T12:53:54.417Z,26.39
2023-05-14T12:56:21.479Z,26.41
2023-05-14T12:58:47.978Z,26.43
2023-05-14T13:01:14.351Z,26.46
2023-05-14T13:03:41.297Z,26.47
2023-05-14T13:06:08.008Z,26.49
2023-05-14T13:08:35.496Z,26.51
2023-05-14T13:11:02.059Z,26.55
2023-05-14T13:13:28.536Z,26.59
2023-05-14T13:15:57.884Z,26.65
2023-05-14T13:18:25.886Z,26.71
2023-05-14T13:20:52.631Z,26.73
2023-05-14T13:23:19.004Z,26.76
2023-05-14T13:25:46.132Z,26.77
2023-05-14T13:28:13.655Z,26.80
2023-05-14T13:30:40.046Z,26.85
2023-05-14T13:33:06.732Z,26.85
2023-05-14T13:35:34.489Z,26.84
2023-05-14T13:38:00.938Z,26.86
2023-05-14T13:40:27.524Z,26.88
2023-05-14T13:42:53.898Z,26.87
2023-05-14T13:45:20.370Z,26.89
2023-05-14T13:47:47.707Z,26.91
2023-05-14T13:50:15.104Z,26.92
2023-05-14T13:52:41.524Z,26.95
2023-05-14T13:55:08.309Z,26.97
2023-05-14T13:57:34.682Z,26.99
2023-05-14T14:00:01.311Z,27.01
2023-05-14T14:02:27.776Z,27.02
2023-05-14T14:04:54.114Z,27.04
2023-05-14T14:07:22.045Z,27.06
2023-05-14T14:09:48.436Z,27.07
2023-05-14T14:12:15.319Z,27.04
2023-05-14T14:14:41.861Z,27.02
2023-05-14T14:17:09.136Z,26.99
2023-05-14T14:19:35.570Z,26.97
2023-05-14T14:22:02.191Z,26.92
2023-05-14T14:24:28.537Z,26.89
2023-05-14T14:26:55.003Z,26.84
2023-05-14T14:29:23.713Z,26.82
2023-05-14T14:31:50.241Z,26.81
2023-05-14T14:34:16.558Z,26.81
2023-05-14T14:36:42.924Z,26.82
2023-05-14T14:39:09.477Z,26.84
2023-05-14T14:41:35.865Z,26.87
2023-05-14T14:44:02.798Z,26.93
2023-05-14T14:46:29.387Z,26.97
2023-05-14T14:48:55.860Z,26.99
2023-05-14T14:51:22.445Z,26.99
2023-05-14T14:53:48.992Z,26.96
2023-05-14T14:56:15.531Z,26.94
2023-05-14T14:58:41.931Z,26.89
2023-05-14T15:01:08.513Z,26.84
2023-05-14T15:03:36.140Z,26.79
2023-05-14T15:06:02.609Z,26.74
2023-05-14T15:08:29.010Z,26.69
2023-05-14T15:10:59.323Z,26.63
2023-05-14T15:13:27.084Z,26.61
2023-05-14T15:15:53.471Z,26.59
2023-05-14T15:18:19.990Z,26.56
2023-05-14T15:20:46.427Z,26.52
2023-05-14T15:23:12.937Z,26.50
2023-05-14T15:25:39.362Z,26.49
2023-05-14T15:28:07.736Z,26.48
2023-05-14T15:30:34.252Z,26.50
2023-05-14T15:33:00.842Z,26.51
2023-05-14T15:35:28.531Z,26.52
2023-05-14T15:37:57.110Z,26.53
2023-05-14T15:40:23.766Z,26.56
2023-05-14T15:42:50.475Z,26.59
2023-05-14T15:45:17.100Z,26.59
2023-05-14T15:47:45.022Z,26.60
2023-05-14T15:50:12.001Z,26.62
2023-05-14T15:52:39.297Z,26.64
2023-05-14T15:55:06.112Z,26.63
2023-05-14T15:57:32.586Z,26.63
2023-05-14T15:59:59.023Z,26.63
2023-05-14T16:02:25.771Z,26.60
2023-05-14T16:04:52.346Z,26.59
2023-05-14T16:07:19.033Z,26.56
2023-05-14T16:09:45.677Z,26.55
2023-05-14T16:12:12.386Z,26.53
2023-05-14T16:14:41.771Z,26.51
2023-05-14T16:17:08.619Z,26.50
2023-05-14T16:19:35.275Z,26.49
2023-05-14T16:22:01.870Z,26.47
2023-05-14T16:24:28.255Z,26.46
2023-05-14T16:26:54.750Z,26.44
2023-05-14T16:29:21.396Z,26.45
2023-05-14T16:31:48.004Z,26.42
2023-05-14T16:34:14.641Z,26.42
2023-05-14T16:36:41.154Z,26.40
2023-05-14T16:39:08.636Z,26.38
2023-05-14T16:41:36.112Z,26.38
2023-05-14T16:44:02.711Z,26.37
2023-05-14T16:46:29.628Z,26.35
2023-05-14T16:48:56.268Z,26.34
2023-05-14T16:51:24.230Z,26.31
2023-05-14T16:53:51.903Z,26.29
2023-05-14T16:56:19.055Z,26.29
2023-05-14T16:58:45.392Z,26.29
2023-05-14T17:01:11.969Z,26.28
2023-05-14T17:03:38.392Z,26.28
2023-05-14T17:06:05.011Z,26.28
2023-05-14T17:08:33.730Z,26.28
2023-05-14T17:11:00.248Z,26.27
2023-05-14T17:13:26.557Z,26.27
2023-05-14T17:15:52.944Z,26.24
2023-05-14T17:18:19.657Z,26.24
2023-05-14T17:20:47.877Z,26.20
2023-05-14T17:23:14.575Z,26.19
2023-05-14T17:25:42.551Z,26.17
2023-05-14T17:28:08.943Z,26.15
2023-05-14T17:30:35.542Z,26.13
2023-05-14T17:33:02.172Z,26.11
2023-05-14T17:35:28.704Z,26.09
2023-05-14T17:37:55.462Z,26.04
2023-05-14T17:40:22.118Z,26.02
2023-05-14T17:42:48.676Z,25.98
2023-05-14T17:45:15.647Z,25.94
2023-05-14T17:47:42.272Z,25.92
2023-05-14T17:50:10.345Z,25.86
2023-05-14T17:52:37.680Z,25.84
2023-05-14T17:55:08.769Z,25.82
2023-05-14T17:57:35.088Z,25.77
2023-05-14T18:00:01.908Z,25.75
2023-05-14T18:02:28.316Z,25.71
2023-05-14T18:04:56.186Z,25.67
2023-05-14T18:07:22.702Z,25.64
2023-05-14T18:09:49.089Z,25.61
2023-05-14T18:12:15.447Z,25.58
2023-05-14T18:14:44.802Z,25.53
2023-05-14T18:17:13.245Z,25.51
2023-05-14T18:19:41.159Z,25.48
2023-05-14T18:22:07.575Z,25.44
2023-05-14T18:24:34.241Z,25.40
2023-05-14T18:27:01.156Z,25.37
2023-05-14T18:29:27.521Z,25.32
2023-05-14T18:31:53.903Z,25.28
2023-05-14T18:34:20.513Z,25.23
2023-05-14T18:36:47.054Z,25.20
2023-05-14T18:39:13.701Z,25.17
2023-05-14T18:41:40.494Z,25.14
2023-05-14T18:44:06.866Z,25.10
2023-05-14T18:46:33.552Z,25.06
2023-05-14T18:49:02.473Z,25.03
2023-05-14T18:51:31.829Z,25.00
2023-05-14T18:53:59.086Z,24.95
2023-05-14T18:56:26.442Z,24.91
2023-05-14T18:58:56.810Z,24.87
2023-05-14T19:01:25.779Z,24.83
2023-05-14T19:03:53.468Z,24.79
2023-05-14T19:06:20.160Z,24.74
2023-05-14T19:08:47.077Z,24.72
2023-05-14T19:11:14.697Z,24.66
2023-05-14T19:13:41.345Z,24.62
2023-05-14T19:16:07.818Z,24.55
2023-05-14T19:18:36.743Z,24.51
2023-05-14T19:21:03.415Z,24.44
2023-05-14T19:23:31.091Z,24.39
2023-05-14T19:25:57.785Z,24.33
2023-05-14T19:28:24.340Z,24.28
2023-05-14T19:30:51.195Z,24.23
2023-05-14T19:33:17.911Z,24.18
2023-05-14T19:35:44.335Z,24.12
2023-05-14T19:38:15.219Z,24.07
2023-05-14T19:40:44.403Z,24.00
2023-05-14T19:43:11.860Z,23.95
2023-05-14T19:45:39.253Z,23.87
2023-05-14T19:48:06.435Z,23.82
2023-05-14T19:50:33.340Z,23.75
2023-05-14T19:53:00.251Z,23.69
2023-05-14T19:55:27.052Z,23.62
2023-05-14T19:57:53.643Z,23.56
2023-05-14T20:00:21.107Z,23.51
2023-05-14T20:02:47.741Z,23.45
2023-05-14T20:05:15.355Z,23.42
2023-05-14T20:07:42.716Z,23.38
2023-05-14T20:10:10.787Z,23.33
2023-05-14T20:12:37.157Z,23.29
2023-05-14T20:15:04.178Z,23.26
2023-05-14T20:17:34.564Z,23.21
2023-05-14T20:20:01.377Z,23.16
2023-05-14T20:22:27.760Z,23.13
2023-05-14T20:24:54.214Z,23.09
2023-05-14T20:27:21.310Z,23.05
2023-05-14T20:29:51.103Z,23.02
2023-05-14T20:32:18.064Z,22.98
2023-05-14T20:34:44.672Z,22.93
2023-05-14T20:37:11.250Z,22.90
2023-05-14T20:39:37.671Z,22.87
2023-05-14T20:42:04.417Z,22.83
2023-05-14T20:44:31.092Z,22.79
2023-05-14T20:46:57.870Z,22.76
2023-05-14T20:49:25.109Z,22.72
2023-05-14T20:51:52.064Z,22.68
2023-05-14T20:54:18.371Z,22.63
2023-05-14T20:56:44.925Z,22.58
2023-05-14T20:59:11.340Z,22.53
2023-05-14T21:01:37.733Z,22.50
2023-05-14T21:04:04.774Z,22.45
2023-05-14T21:06:32.336Z,22.41
2023-05-14T21:08:58.660Z,22.36
2023-05-14T21:11:26.609Z,22.32
2023-05-14T21:13:53.097Z,22.28
2023-05-14T21:16:20.340Z,22.24
2023-05-14T21:18:47.091Z,22.23
2023-05-14T21:21:13.501Z,22.21
2023-05-14T21:23:41.263Z,22.19
2023-05-14T21:26:07.797Z,22.15
2023-05-14T21:28:35.288Z,22.13
2023-05-14T21:31:01.715Z,22.08
2023-05-14T21:33:28.205Z,22.06
2023-05-14T21:35:54.839Z,22.02
2023-05-14T21:38:21.228Z,22.01
2023-05-14T21:40:47.612Z,21.99
2023-05-14T21:43:14.414Z,21.96
2023-05-14T21:45:40.846Z,21.94
2023-05-14T21:48:07.642Z,21.94
2023-05-14T21:50:34.121Z,21.94
2023-05-14T21:53:00.674Z,21.93
2023-05-14T21:55:27.953Z,21.93
2023-05-14T21:57:54.922Z,21.94
2023-05-14T22:00:24.632Z,21.95
2023-05-14T22:02:52.913Z,21.91
2023-05-14T22:05:22.204Z,21.92
2023-05-14T22:07:50.452Z,21.90
2023-05-14T22:10:16.881Z,21.87
2023-05-14T22:12:44.463Z,21.85
2023-05-14T22:15:11.817Z,21.82
2023-05-14T22:17:38.757Z,21.82
2023-05-14T22:20:06.736Z,21.78
2023-05-14T22:22:34.108Z,21.78
2023-05-14T22:25:01.656Z,21.77
2023-05-14T22:27:28.465Z,21.73
2023-05-14T22:29:58.100Z,21.71
2023-05-14T22:32:24.960Z,21.69
2023-05-14T22:34:52.241Z,21.67
2023-05-14T22:37:18.748Z,21.64
2023-05-14T22:39:45.078Z,21.62
2023-05-14T22:42:11.893Z,21.60
2023-05-14T22:44:38.633Z,21.58
2023-05-14T22:47:05.196Z,21.55
2023-05-14T22:49:32.061Z,21.52
2023-05-14T22:51:58.557Z,21.48
2023-05-14T22:54:24.933Z,21.46
2023-05-14T22:56:51.840Z,21.44
2023-05-14T22:59:18.245Z,21.41
2023-05-14T23:01:44.706Z,21.42
2023-05-14T23:04:11.123Z,21.39
2023-05-14T23:06:38.081Z,21.41
2023-05-14T23:09:04.538Z,21.40
2023-05-14T23:11:32.337Z,21.40
2023-05-14T23:13:58.800Z,21.40
2023-05-14T23:16:25.932Z,21.40
2023-05-14T23:18:52.792Z,21.38
2023-05-14T23:21:19.336Z,21.35
2023-05-14T23:23:46.602Z,21.33
2023-05-14T23:26:13.187Z,21.30
2023-05-14T23:28:39.842Z,21.27
2023-05-14T23:31:06.221Z,21.25
2023-05-14T23:33:32.894Z,21.24
2023-05-14T23:35:59.600Z,21.23
2023-05-14T23:38:26.068Z,21.19
2023-05-14T23:40:52.440Z,21.17
2023-05-14T23:43:19.389Z,21.14
2023-05-14T23:45:45.808Z,21.10
2023-05-14T23:48:12.424Z,21.07
2023-05-14T23:50:38.952Z,21.02
2023-05-14T23:53:05.446Z,20.99
2023-05-14T23:55:31.853Z,20.95
2023-05-14T23:57:58.417Z,20.91
